createdAt,value
2023-01-25T00:00:19.765Z,0
2023-01-25T00:01:19.717Z,0
2023-01-25T00:02:20.000Z,0
2023-01-25T00:03:19.995Z,0
2023-01-25T00:04:19.998Z,0
2023-01-25T00:05:22.858Z,0
2023-01-25T00:06:19.697Z,0
2023-01-25T00:07:19.891Z,0
2023-01-25T00:08:19.743Z,0
2023-01-25T00:09:19.739Z,0
2023-01-25T00:10:19.756Z,0
2023-01-25T00:11:19.700Z,0
2023-01-25T00:12:19.749Z,0
2023-01-25T00:13:19.800Z,0
2023-01-25T00:14:19.757Z,0
2023-01-25T00:15:19.737Z,0
2023-01-25T00:16:23.130Z,0
2023-01-25T00:17:20.330Z,0
2023-01-25T00:18:19.717Z,0
2023-01-25T00:19:19.774Z,0
2023-01-25T00:20:19.747Z,0
2023-01-25T00:21:22.561Z,0
2023-01-25T00:22:19.870Z,0
2023-01-25T00:23:19.772Z,0
2023-01-25T00:24:20.012Z,0
2023-01-25T00:25:19.741Z,0
2023-01-25T00:26:19.726Z,0
2023-01-25T00:27:22.565Z,0
2023-01-25T00:28:19.974Z,0
2023-01-25T00:29:19.723Z,0
2023-01-25T00:30:19.753Z,0
2023-01-25T00:31:20.244Z,0
2023-01-25T00:32:22.055Z,0
2023-01-25T00:33:19.767Z,0
2023-01-25T00:34:19.730Z,0
2023-01-25T00:35:19.750Z,0
2023-01-25T00:36:19.745Z,0
2023-01-25T00:37:19.810Z,0
2023-01-25T00:38:22.553Z,0
2023-01-25T00:39:19.779Z,0
2023-01-25T00:40:19.841Z,0
2023-01-25T00:41:19.775Z,0
2023-01-25T00:42:19.807Z,0
2023-01-25T00:43:22.765Z,0
2023-01-25T00:44:19.785Z,0
2023-01-25T00:45:19.795Z,0
2023-01-25T00:46:20.059Z,0
2023-01-25T00:47:19.839Z,0
2023-01-25T00:48:19.801Z,0
2023-01-25T00:49:22.640Z,0
2023-01-25T00:50:20.049Z,0
2023-01-25T00:51:19.828Z,0
2023-01-25T00:52:19.799Z,0
2023-01-25T00:53:19.790Z,0
2023-01-25T00:54:22.614Z,0
2023-01-25T00:55:19.782Z,0
2023-01-25T00:56:19.881Z,0
2023-01-25T00:57:19.828Z,0
2023-01-25T00:58:20.065Z,0
2023-01-25T00:59:19.832Z,0
2023-01-25T01:00:22.662Z,0
2023-01-25T01:01:20.390Z,0
2023-01-25T01:02:19.887Z,0
2023-01-25T01:03:19.855Z,0
2023-01-25T01:04:20.166Z,0
2023-01-25T01:05:21.503Z,0
2023-01-25T01:06:19.835Z,0
2023-01-25T01:07:19.841Z,0
2023-01-25T01:08:19.791Z,0
2023-01-25T01:09:19.817Z,0
2023-01-25T01:10:19.901Z,0
2023-01-25T01:11:22.835Z,0
2023-01-25T01:12:22.684Z,0
2023-01-25T01:13:19.923Z,0
2023-01-25T01:14:19.947Z,0
2023-01-25T01:15:19.834Z,0
2023-01-25T01:16:23.032Z,0
2023-01-25T01:17:19.863Z,0
2023-01-25T01:18:19.831Z,0
2023-01-25T01:19:19.864Z,0
2023-01-25T01:20:20.040Z,0
2023-01-25T01:21:19.998Z,0
2023-01-25T01:22:22.641Z,0
2023-01-25T01:23:19.828Z,0
2023-01-25T01:24:20.230Z,0
2023-01-25T01:25:19.975Z,0
2023-01-25T01:26:19.927Z,0
2023-01-25T01:27:22.666Z,0
2023-01-25T01:28:19.835Z,0
2023-01-25T01:29:19.867Z,0
2023-01-25T01:30:19.825Z,0
2023-01-25T01:31:20.223Z,0
2023-01-25T01:32:20.849Z,0
2023-01-25T01:33:19.853Z,0
2023-01-25T01:34:19.846Z,0
2023-01-25T01:35:19.857Z,0
2023-01-25T01:36:19.958Z,0
2023-01-25T01:37:19.912Z,0
2023-01-25T01:38:22.970Z,0
2023-01-25T01:39:19.924Z,0
2023-01-25T01:40:19.857Z,0
2023-01-25T01:41:20.100Z,0
2023-01-25T01:42:19.950Z,0
2023-01-25T01:43:19.852Z,0
2023-01-25T01:44:19.900Z,0
2023-01-25T01:45:19.897Z,0
2023-01-25T01:46:20.263Z,0
2023-01-25T01:47:19.934Z,0
2023-01-25T01:48:19.942Z,0
2023-01-25T01:49:23.047Z,0
2023-01-25T01:50:19.931Z,0
2023-01-25T01:51:21.949Z,0
2023-01-25T01:52:19.916Z,0
2023-01-25T01:53:19.905Z,0
2023-01-25T01:54:19.922Z,0
2023-01-25T01:55:19.839Z,0
2023-01-25T01:56:19.984Z,0
2023-01-25T01:57:19.890Z,0
2023-01-25T01:58:19.936Z,0
2023-01-25T01:59:19.892Z,0
2023-01-25T02:00:22.719Z,0
2023-01-25T02:01:20.063Z,0
2023-01-25T02:02:20.100Z,0
2023-01-25T02:03:19.924Z,0
2023-01-25T02:04:19.907Z,0
2023-01-25T02:05:19.905Z,0
2023-01-25T02:06:19.881Z,0
2023-01-25T02:07:19.974Z,0
2023-01-25T02:08:19.955Z,0
2023-01-25T02:09:19.944Z,0
2023-01-25T02:10:19.910Z,0
2023-01-25T02:11:19.872Z,0
2023-01-25T02:12:19.905Z,0
2023-01-25T02:13:19.981Z,0
2023-01-25T02:14:19.943Z,0
2023-01-25T02:15:19.979Z,0
2023-01-25T02:16:23.201Z,0
2023-01-25T02:17:19.899Z,0
2023-01-25T02:18:19.966Z,0
2023-01-25T02:19:19.926Z,0
2023-01-25T02:20:19.900Z,0
2023-01-25T02:21:19.910Z,0
2023-01-25T02:22:20.933Z,0
2023-01-25T02:23:19.917Z,0
2023-01-25T02:24:20.319Z,0
2023-01-25T02:25:20.945Z,0
2023-01-25T02:26:19.924Z,0
2023-01-25T02:27:20.002Z,0
2023-01-25T02:28:19.955Z,0
2023-01-25T02:29:19.946Z,0
2023-01-25T02:30:19.973Z,0
2023-01-25T02:31:20.634Z,0
2023-01-25T02:32:23.306Z,0
2023-01-25T02:33:19.948Z,0
2023-01-25T02:34:19.973Z,0
2023-01-25T02:35:19.927Z,0
2023-01-25T02:36:22.671Z,0
2023-01-25T02:37:19.936Z,0
2023-01-25T02:38:19.956Z,0
2023-01-25T02:39:22.287Z,0
2023-01-25T02:40:19.993Z,0
2023-01-25T02:41:19.959Z,0
2023-01-25T02:42:19.977Z,0
2023-01-25T02:43:22.753Z,0
2023-01-25T02:44:20.011Z,0
2023-01-25T02:45:19.975Z,0
2023-01-25T02:46:20.336Z,0
2023-01-25T02:47:19.921Z,0
2023-01-25T02:48:23.622Z,0
2023-01-25T02:49:19.978Z,0
2023-01-25T02:50:22.094Z,0
2023-01-25T02:51:19.996Z,0
2023-01-25T02:52:19.981Z,0
2023-01-25T02:53:19.982Z,0
2023-01-25T02:54:23.152Z,0
2023-01-25T02:55:19.972Z,0
2023-01-25T02:56:19.990Z,0
2023-01-25T02:57:21.684Z,0
2023-01-25T02:58:21.055Z,0
2023-01-25T02:59:23.056Z,0
2023-01-25T03:00:20.044Z,0
2023-01-25T03:01:20.220Z,0
2023-01-25T03:02:20.150Z,0
2023-01-25T03:03:20.040Z,0
2023-01-25T03:04:20.002Z,0
2023-01-25T03:05:23.047Z,0
2023-01-25T03:06:19.984Z,0
2023-01-25T03:07:19.998Z,0
2023-01-25T03:08:20.021Z,0
2023-01-25T03:09:20.035Z,0
2023-01-25T03:10:22.859Z,0
2023-01-25T03:11:19.986Z,0
2023-01-25T03:12:20.115Z,0
2023-01-25T03:13:20.052Z,0
2023-01-25T03:14:20.029Z,0
2023-01-25T03:15:20.041Z,0
2023-01-25T03:16:24.118Z,0
2023-01-25T03:17:20.012Z,0
2023-01-25T03:18:20.099Z,0
2023-01-25T03:19:20.077Z,0
2023-01-25T03:20:20.052Z,0
2023-01-25T03:21:22.856Z,0
2023-01-25T03:22:20.056Z,0
2023-01-25T03:23:20.033Z,0
2023-01-25T03:24:20.357Z,0
2023-01-25T03:25:20.198Z,0
2023-01-25T03:26:20.025Z,0
2023-01-25T03:27:23.058Z,0
2023-01-25T03:28:20.074Z,0
2023-01-25T03:29:20.001Z,0
2023-01-25T03:30:20.114Z,0
2023-01-25T03:31:20.488Z,0
2023-01-25T03:32:23.383Z,0
2023-01-25T03:33:20.051Z,0
2023-01-25T03:34:20.065Z,0
2023-01-25T03:35:20.014Z,0
2023-01-25T03:36:20.410Z,0
2023-01-25T03:37:20.177Z,0
2023-01-25T03:39:20.043Z,0
2023-01-25T03:40:20.087Z,0
2023-01-25T03:41:20.125Z,0
2023-01-25T03:42:20.165Z,0
2023-01-25T03:43:23.365Z,0
2023-01-25T03:44:20.088Z,0
2023-01-25T03:45:20.317Z,0
2023-01-25T03:46:20.054Z,0
2023-01-25T03:47:20.397Z,0
2023-01-25T03:48:20.066Z,0
2023-01-25T03:49:22.950Z,0
2023-01-25T03:50:20.079Z,0
2023-01-25T03:51:20.143Z,0
2023-01-25T03:52:22.528Z,0
2023-01-25T03:53:20.044Z,0
2023-01-25T03:54:23.294Z,0
2023-01-25T03:55:20.097Z,0
2023-01-25T03:56:22.969Z,0
2023-01-25T03:57:20.066Z,0
2023-01-25T03:58:20.231Z,0
2023-01-25T03:59:20.066Z,0
2023-01-25T04:00:22.855Z,0
2023-01-25T04:01:20.454Z,0
2023-01-25T04:02:20.417Z,0
2023-01-25T04:03:20.078Z,0
2023-01-25T04:04:20.070Z,0
2023-01-25T04:05:22.953Z,0
2023-01-25T04:06:20.202Z,0
2023-01-25T04:07:20.089Z,0
2023-01-25T04:08:20.161Z,0
2023-01-25T04:09:20.102Z,0
2023-01-25T04:10:20.098Z,0
2023-01-25T04:11:23.513Z,0
2023-01-25T04:12:20.117Z,0
2023-01-25T04:13:20.075Z,0
2023-01-25T04:14:43.532Z,0
2023-01-25T04:15:20.104Z,0
2023-01-25T04:16:23.141Z,0
2023-01-25T04:17:20.105Z,0
2023-01-25T04:18:20.081Z,0
2023-01-25T04:19:20.132Z,0
2023-01-25T04:20:20.156Z,0
2023-01-25T04:21:20.212Z,0
2023-01-25T04:22:20.177Z,0
2023-01-25T04:23:20.100Z,0
2023-01-25T04:24:20.388Z,0
2023-01-25T04:25:20.120Z,0
2023-01-25T04:26:20.094Z,0
2023-01-25T04:27:23.089Z,0
2023-01-25T04:28:20.163Z,0
2023-01-25T04:29:28.655Z,0
2023-01-25T04:30:20.110Z,0
2023-01-25T04:31:20.740Z,0
2023-01-25T04:32:21.087Z,0
2023-01-25T04:33:20.108Z,0
2023-01-25T04:34:20.123Z,0
2023-01-25T04:35:20.163Z,0
2023-01-25T04:36:20.124Z,0
2023-01-25T04:37:20.255Z,0
2023-01-25T04:38:20.139Z,0
2023-01-25T04:39:20.119Z,0
2023-01-25T04:40:20.163Z,0
2023-01-25T04:41:20.141Z,0
2023-01-25T04:42:20.183Z,0
2023-01-25T04:43:23.090Z,0
2023-01-25T04:44:20.139Z,0
2023-01-25T04:45:20.169Z,0
2023-01-25T04:46:20.311Z,0
2023-01-25T04:47:20.122Z,0
2023-01-25T04:48:20.227Z,0
2023-01-25T04:49:20.194Z,0
2023-01-25T04:50:20.163Z,0
2023-01-25T04:51:20.173Z,0
2023-01-25T04:52:20.189Z,0
2023-01-25T04:53:20.215Z,0
2023-01-25T04:54:20.150Z,0
2023-01-25T04:55:20.178Z,0
2023-01-25T04:56:20.171Z,0
2023-01-25T04:57:20.209Z,0
2023-01-25T04:58:20.286Z,0
2023-01-25T04:59:22.976Z,0
2023-01-25T05:00:20.177Z,0
2023-01-25T05:01:20.447Z,0
2023-01-25T05:02:20.413Z,0
2023-01-25T05:03:20.203Z,0
2023-01-25T05:04:22.990Z,0
2023-01-25T05:05:20.234Z,0
2023-01-25T05:06:20.203Z,0
2023-01-25T05:07:20.269Z,0
2023-01-25T05:08:20.172Z,0
2023-01-25T05:09:22.983Z,0
2023-01-25T05:10:23.173Z,0
2023-01-25T05:11:20.192Z,0
2023-01-25T05:12:20.228Z,0
2023-01-25T05:13:23.194Z,0
2023-01-25T05:14:20.209Z,0
2023-01-25T05:15:23.044Z,0
2023-01-25T05:16:20.423Z,0
2023-01-25T05:17:20.200Z,0
2023-01-25T05:18:20.184Z,0
2023-01-25T05:19:20.223Z,0
2023-01-25T05:20:20.228Z,0
2023-01-25T05:21:23.036Z,0
2023-01-25T05:22:20.289Z,0
2023-01-25T05:23:20.179Z,0
2023-01-25T05:24:20.537Z,0
2023-01-25T05:25:20.348Z,0
2023-01-25T05:26:23.080Z,0
2023-01-25T05:27:20.413Z,0
2023-01-25T05:28:20.071Z,0
2023-01-25T05:29:20.266Z,0
2023-01-25T05:30:20.219Z,0
2023-01-25T05:31:20.740Z,0
2023-01-25T05:32:22.944Z,0
2023-01-25T05:33:20.298Z,0
2023-01-25T05:34:20.300Z,0
2023-01-25T05:35:20.228Z,0
2023-01-25T05:36:20.255Z,0
2023-01-25T05:37:23.560Z,0
2023-01-25T05:38:20.258Z,0
2023-01-25T05:39:20.258Z,0
2023-01-25T05:40:20.236Z,0
2023-01-25T05:41:20.294Z,0
2023-01-25T05:42:20.268Z,0
2023-01-25T05:43:22.894Z,0
2023-01-25T05:44:20.299Z,0
2023-01-25T05:45:20.241Z,0
2023-01-25T05:46:20.501Z,0
2023-01-25T05:47:20.235Z,0
2023-01-25T05:48:23.035Z,0
2023-01-25T05:49:21.311Z,0
2023-01-25T05:50:20.059Z,0
2023-01-25T05:51:20.245Z,0
2023-01-25T05:52:20.260Z,0
2023-01-25T05:53:20.247Z,0
2023-01-25T05:54:23.132Z,0
2023-01-25T05:55:22.434Z,0
2023-01-25T05:56:20.250Z,0
2023-01-25T05:57:20.332Z,0
2023-01-25T05:58:20.262Z,0
2023-01-25T05:59:23.560Z,0
2023-01-25T06:00:20.133Z,0
2023-01-25T06:01:20.113Z,0
2023-01-25T06:02:20.747Z,0
2023-01-25T06:03:25.378Z,0
2023-01-25T06:04:20.331Z,0
2023-01-25T06:05:24.050Z,0
2023-01-25T06:06:20.344Z,0
2023-01-25T06:07:20.429Z,0
2023-01-25T06:08:20.390Z,0
2023-01-25T06:09:20.349Z,0
2023-01-25T06:10:23.119Z,0
2023-01-25T06:11:20.313Z,0
2023-01-25T06:12:20.335Z,0
2023-01-25T06:13:20.366Z,0
2023-01-25T06:14:20.343Z,0
2023-01-25T06:15:20.325Z,0
2023-01-25T06:16:23.464Z,0
2023-01-25T06:17:20.325Z,0
2023-01-25T06:18:20.263Z,0
2023-01-25T06:19:20.530Z,0
2023-01-25T06:20:20.174Z,0
2023-01-25T06:21:23.331Z,0
2023-01-25T06:22:20.319Z,0
2023-01-25T06:23:20.281Z,0
2023-01-25T06:24:20.582Z,0
2023-01-25T06:25:20.536Z,0
2023-01-25T06:26:20.331Z,0
2023-01-25T06:27:23.514Z,0
2023-01-25T06:28:20.289Z,0
2023-01-25T06:29:20.438Z,0
2023-01-25T06:30:20.329Z,0
2023-01-25T06:31:20.813Z,0
2023-01-25T06:32:23.643Z,0
2023-01-25T06:33:20.376Z,0
2023-01-25T06:34:20.413Z,0
2023-01-25T06:35:20.369Z,0
2023-01-25T06:36:20.457Z,0
2023-01-25T06:37:20.054Z,0
2023-01-25T06:38:23.513Z,0
2023-01-25T06:39:23.096Z,0
2023-01-25T06:40:20.426Z,0
2023-01-25T06:41:20.481Z,0
2023-01-25T06:42:20.366Z,0
2023-01-25T06:43:23.107Z,0
2023-01-25T06:44:20.370Z,0
2023-01-25T06:45:20.387Z,0
2023-01-25T06:46:20.675Z,0
2023-01-25T06:47:20.222Z,0
2023-01-25T06:48:20.540Z,0
2023-01-25T06:49:20.402Z,0
2023-01-25T06:50:20.340Z,0
2023-01-25T06:51:20.347Z,4
2023-01-25T06:52:20.226Z,4
2023-01-25T06:53:20.283Z,4
2023-01-25T06:54:21.061Z,0
2023-01-25T06:55:20.447Z,0
2023-01-25T06:56:20.356Z,0
2023-01-25T06:57:20.331Z,0
2023-01-25T06:58:20.395Z,0
2023-01-25T06:59:20.486Z,4
2023-01-25T07:00:20.435Z,4
2023-01-25T07:01:20.742Z,4
2023-01-25T07:02:20.458Z,4
2023-01-25T07:03:20.558Z,0
2023-01-25T07:04:20.437Z,0
2023-01-25T07:05:20.441Z,4
2023-01-25T07:06:20.638Z,4
2023-01-25T07:07:20.414Z,4
2023-01-25T07:08:20.375Z,4
2023-01-25T07:09:20.438Z,0
2023-01-25T07:10:23.175Z,4
2023-01-25T07:11:20.589Z,4
2023-01-25T07:12:20.216Z,4
2023-01-25T07:13:20.390Z,4
2023-01-25T07:14:20.466Z,4
2023-01-25T07:15:20.412Z,4
2023-01-25T07:16:23.325Z,4
2023-01-25T07:17:20.252Z,8
2023-01-25T07:18:23.643Z,4
2023-01-25T07:19:20.470Z,4
2023-01-25T07:20:20.403Z,4
2023-01-25T07:21:20.696Z,4
2023-01-25T07:22:20.614Z,4
2023-01-25T07:23:20.419Z,8
2023-01-25T07:24:20.743Z,8
2023-01-25T07:25:20.421Z,4
2023-01-25T07:26:23.292Z,4
2023-01-25T07:27:20.418Z,4
2023-01-25T07:28:20.429Z,8
2023-01-25T07:29:20.485Z,8
2023-01-25T07:30:20.427Z,4
2023-01-25T07:31:20.966Z,8
2023-01-25T07:32:20.488Z,8
2023-01-25T07:33:20.520Z,8
2023-01-25T07:34:21.555Z,12
2023-01-25T07:35:20.415Z,8
2023-01-25T07:36:20.743Z,8
2023-01-25T07:37:29.568Z,8
2023-01-25T07:38:21.675Z,8
2023-01-25T07:39:20.501Z,8
2023-01-25T07:40:20.454Z,8
2023-01-25T07:41:20.664Z,12
2023-01-25T07:42:23.547Z,12
2023-01-25T07:43:20.464Z,12
2023-01-25T07:44:20.523Z,8
2023-01-25T07:45:20.470Z,12
2023-01-25T07:46:20.505Z,12
2023-01-25T07:47:20.412Z,12
2023-01-25T07:48:23.409Z,12
2023-01-25T07:49:20.700Z,12
2023-01-25T07:50:20.484Z,12
2023-01-25T07:51:20.563Z,12
2023-01-25T07:52:20.485Z,16
2023-01-25T07:53:23.335Z,16
2023-01-25T07:54:20.534Z,12
2023-01-25T07:55:20.464Z,12
2023-01-25T07:56:20.501Z,16
2023-01-25T07:57:20.434Z,12
2023-01-25T07:58:20.472Z,16
2023-01-25T07:59:23.353Z,12
2023-01-25T08:00:20.619Z,16
2023-01-25T08:01:20.481Z,16
2023-01-25T08:02:21.543Z,16
2023-01-25T08:03:20.593Z,16
2023-01-25T08:04:23.398Z,16
2023-01-25T08:05:20.493Z,20
2023-01-25T08:06:20.694Z,20
2023-01-25T08:07:20.466Z,16
2023-01-25T08:08:20.631Z,16
2023-01-25T08:09:20.537Z,20
2023-01-25T08:10:23.536Z,20
2023-01-25T08:11:20.504Z,20
2023-01-25T08:12:20.474Z,20
2023-01-25T08:13:20.462Z,20
2023-01-25T08:14:20.545Z,20
2023-01-25T08:15:23.352Z,24
2023-01-25T08:16:20.465Z,24
2023-01-25T08:17:20.473Z,20
2023-01-25T08:18:20.529Z,24
2023-01-25T08:19:20.500Z,24
2023-01-25T08:20:20.565Z,24
2023-01-25T08:21:23.807Z,24
2023-01-25T08:22:20.540Z,24
2023-01-25T08:23:20.504Z,24
2023-01-25T08:24:27.703Z,24
2023-01-25T08:25:20.548Z,28
2023-01-25T08:26:23.579Z,28
2023-01-25T08:27:20.494Z,28
2023-01-25T08:28:20.588Z,28
2023-01-25T08:29:20.499Z,28
2023-01-25T08:30:20.802Z,28
2023-01-25T08:31:20.532Z,28
2023-01-25T08:32:23.320Z,28
2023-01-25T08:33:20.510Z,28
2023-01-25T08:34:20.495Z,28
2023-01-25T08:35:20.551Z,28
2023-01-25T08:36:20.665Z,28
2023-01-25T08:37:23.813Z,28
2023-01-25T08:38:20.585Z,32
2023-01-25T08:39:20.526Z,32
2023-01-25T08:40:20.538Z,32
2023-01-25T08:41:20.698Z,32
2023-01-25T08:42:21.527Z,32
2023-01-25T08:43:23.346Z,32
2023-01-25T08:44:20.633Z,32
2023-01-25T08:45:20.537Z,28
2023-01-25T08:46:20.909Z,32
2023-01-25T08:47:20.537Z,32
2023-01-25T08:48:23.337Z,32
2023-01-25T08:49:20.526Z,32
2023-01-25T08:50:20.539Z,32
2023-01-25T08:51:20.571Z,32
2023-01-25T08:52:22.727Z,28
2023-01-25T08:53:20.571Z,32
2023-01-25T08:54:23.559Z,32
2023-01-25T08:55:20.784Z,32
2023-01-25T08:56:20.567Z,32
2023-01-25T08:57:20.534Z,32
2023-01-25T08:58:20.563Z,28
2023-01-25T08:59:23.556Z,32
2023-01-25T09:00:20.557Z,32
2023-01-25T09:01:20.580Z,32
2023-01-25T09:02:20.567Z,32
2023-01-25T09:03:22.452Z,36
2023-01-25T09:04:20.574Z,36
2023-01-25T09:05:20.681Z,36
2023-01-25T09:06:20.761Z,32
2023-01-25T09:07:20.581Z,36
2023-01-25T09:08:20.734Z,36
2023-01-25T09:09:20.590Z,36
2023-01-25T09:10:23.635Z,36
2023-01-25T09:11:20.600Z,36
2023-01-25T09:12:20.596Z,40
2023-01-25T09:13:20.603Z,40
2023-01-25T09:14:20.793Z,40
2023-01-25T09:15:20.653Z,40
2023-01-25T09:16:20.634Z,40
2023-01-25T09:17:20.602Z,40
2023-01-25T09:18:20.651Z,44
2023-01-25T09:19:20.642Z,48
2023-01-25T09:20:20.784Z,44
2023-01-25T09:21:23.421Z,48
2023-01-25T09:22:20.613Z,48
2023-01-25T09:23:20.617Z,48
2023-01-25T09:24:20.975Z,48
2023-01-25T09:25:20.777Z,48
2023-01-25T09:26:20.567Z,52
2023-01-25T09:27:20.611Z,48
2023-01-25T09:28:20.616Z,52
2023-01-25T09:29:20.612Z,52
2023-01-25T09:31:27.224Z,52
2023-01-25T09:31:38.181Z,52
2023-01-25T09:32:41.176Z,48
2023-01-25T09:33:40.532Z,48
2023-01-25T09:34:37.488Z,48
2023-01-25T09:35:37.577Z,48
2023-01-25T09:36:37.519Z,48
2023-01-25T09:37:37.894Z,44
2023-01-25T09:38:40.292Z,44
2023-01-25T09:39:37.651Z,48
2023-01-25T09:40:37.528Z,48
2023-01-25T09:41:37.713Z,52
2023-01-25T09:42:37.553Z,48
2023-01-25T09:43:37.564Z,48
2023-01-25T09:44:37.480Z,52
2023-01-25T09:45:37.539Z,48
2023-01-25T09:46:37.786Z,48
2023-01-25T09:47:37.531Z,52
2023-01-25T09:48:37.573Z,48
2023-01-25T09:49:40.331Z,52
2023-01-25T09:50:37.583Z,48
2023-01-25T09:51:37.495Z,52
2023-01-25T09:52:37.545Z,52
2023-01-25T09:53:37.516Z,52
2023-01-25T09:54:51.561Z,56
2023-01-25T09:55:37.620Z,56
2023-01-25T09:56:39.396Z,60
2023-01-25T09:57:37.535Z,56
2023-01-25T09:58:37.566Z,56
2023-01-25T09:59:37.535Z,60
2023-01-25T10:00:40.466Z,60
2023-01-25T10:01:48.856Z,60
2023-01-25T10:02:38.129Z,64
2023-01-25T10:03:37.541Z,64
2023-01-25T10:04:40.676Z,64
2023-01-25T10:05:37.604Z,64
2023-01-25T10:06:37.664Z,68
2023-01-25T10:07:37.529Z,64
2023-01-25T10:08:37.545Z,64
2023-01-25T10:09:37.570Z,68
2023-01-25T10:10:37.604Z,64
2023-01-25T10:11:45.322Z,72
2023-01-25T10:12:37.510Z,72
2023-01-25T10:13:37.592Z,72
2023-01-25T10:14:37.514Z,68
2023-01-25T10:15:37.782Z,68
2023-01-25T10:16:40.900Z,68
2023-01-25T10:17:37.574Z,64
2023-01-25T10:18:37.596Z,64
2023-01-25T10:19:37.578Z,64
2023-01-25T10:20:37.684Z,64
2023-01-25T10:21:37.594Z,64
2023-01-25T10:22:40.420Z,64
2023-01-25T10:23:37.548Z,64
2023-01-25T10:24:37.576Z,64
2023-01-25T10:25:37.600Z,64
2023-01-25T10:26:37.651Z,60
2023-01-25T10:27:40.633Z,60
2023-01-25T10:28:37.571Z,60
2023-01-25T10:29:37.763Z,56
2023-01-25T10:30:37.732Z,60
2023-01-25T10:31:38.042Z,60
2023-01-25T10:32:54.859Z,60
2023-01-25T10:33:42.716Z,60
2023-01-25T10:34:57.757Z,60
2023-01-25T10:35:49.696Z,60
2023-01-25T10:36:37.624Z,60
2023-01-25T10:37:37.656Z,60
2023-01-25T10:38:40.407Z,60
2023-01-25T10:39:38.636Z,60
2023-01-25T10:40:37.638Z,60
2023-01-25T10:41:37.648Z,60
2023-01-25T10:42:37.849Z,60
2023-01-25T10:43:37.679Z,60
2023-01-25T10:44:40.750Z,60
2023-01-25T10:45:37.685Z,64
2023-01-25T10:46:37.806Z,64
2023-01-25T10:47:37.581Z,60
2023-01-25T10:48:37.654Z,64
2023-01-25T10:49:40.595Z,64
2023-01-25T10:50:37.663Z,64
2023-01-25T10:51:37.945Z,64
2023-01-25T10:52:37.639Z,64
2023-01-25T10:53:37.685Z,68
2023-01-25T10:54:37.776Z,64
2023-01-25T10:55:40.624Z,68
2023-01-25T10:56:37.635Z,64
2023-01-25T10:57:37.639Z,64
2023-01-25T10:58:37.697Z,64
2023-01-25T10:59:37.605Z,64
2023-01-25T11:00:40.815Z,68
2023-01-25T11:01:37.761Z,64
2023-01-25T11:02:37.847Z,68
2023-01-25T11:03:37.699Z,72
2023-01-25T11:04:37.746Z,68
2023-01-25T11:05:37.715Z,72
2023-01-25T11:06:37.671Z,76
2023-01-25T11:07:37.663Z,72
2023-01-25T11:08:37.709Z,72
2023-01-25T11:09:37.723Z,72
2023-01-25T11:10:37.667Z,72
2023-01-25T11:11:42.957Z,72
2023-01-25T11:12:37.626Z,72
2023-01-25T11:13:37.683Z,76
2023-01-25T11:14:37.746Z,80
2023-01-25T11:15:40.677Z,76
2023-01-25T11:16:37.703Z,76
2023-01-25T11:17:37.863Z,80
2023-01-25T11:18:37.718Z,76
2023-01-25T11:19:37.716Z,80
2023-01-25T11:20:38.048Z,76
2023-01-25T11:21:37.680Z,76
2023-01-25T11:22:37.671Z,76
2023-01-25T11:23:37.684Z,76
2023-01-25T11:24:37.714Z,76
2023-01-25T11:25:37.746Z,72
2023-01-25T11:26:37.724Z,72
2023-01-25T11:27:37.670Z,76
2023-01-25T11:28:37.693Z,76
2023-01-25T11:29:37.676Z,72
2023-01-25T11:30:37.949Z,72
2023-01-25T11:31:38.103Z,72
2023-01-25T11:32:37.687Z,76
2023-01-25T11:33:37.655Z,76
2023-01-25T11:34:37.689Z,76
2023-01-25T11:35:37.743Z,76
2023-01-25T11:36:37.741Z,76
2023-01-25T11:37:37.692Z,76
2023-01-25T11:38:40.757Z,76
2023-01-25T11:39:37.720Z,72
2023-01-25T11:40:37.735Z,76
2023-01-25T11:41:39.706Z,76
2023-01-25T11:42:37.929Z,76
2023-01-25T11:43:45.159Z,76
2023-01-25T11:44:37.683Z,76
2023-01-25T11:45:37.714Z,80
2023-01-25T11:46:40.353Z,76
2023-01-25T11:47:37.753Z,76
2023-01-25T11:48:37.728Z,80
2023-01-25T11:49:40.741Z,80
2023-01-25T11:50:37.720Z,76
2023-01-25T11:51:37.606Z,80
2023-01-25T11:52:37.753Z,80
2023-01-25T11:53:37.880Z,80
2023-01-25T11:54:40.541Z,80
2023-01-25T11:55:37.752Z,80
2023-01-25T11:56:37.977Z,80
2023-01-25T11:57:37.752Z,76
2023-01-25T11:58:37.778Z,80
2023-01-25T11:59:40.491Z,76
2023-01-25T12:00:40.580Z,80
2023-01-25T12:01:37.747Z,80
2023-01-25T12:02:37.954Z,76
2023-01-25T12:03:38.052Z,76
2023-01-25T12:04:37.741Z,72
2023-01-25T12:05:40.633Z,76
2023-01-25T12:06:37.826Z,76
2023-01-25T12:07:37.712Z,72
2023-01-25T12:08:39.823Z,72
2023-01-25T12:09:37.751Z,72
2023-01-25T12:10:37.791Z,72
2023-01-25T12:11:37.795Z,72
2023-01-25T12:12:37.790Z,72
2023-01-25T12:13:37.764Z,72
2023-01-25T12:14:37.759Z,72
2023-01-25T12:15:37.733Z,72
2023-01-25T12:16:40.840Z,72
2023-01-25T12:17:37.790Z,72
2023-01-25T12:18:37.851Z,72
2023-01-25T12:19:37.778Z,76
2023-01-25T12:20:37.769Z,76
2023-01-25T12:21:41.393Z,72
2023-01-25T12:22:37.746Z,76
2023-01-25T12:23:37.962Z,76
2023-01-25T12:24:37.751Z,76
2023-01-25T12:25:37.741Z,76
2023-01-25T12:26:37.832Z,76
2023-01-25T12:27:40.591Z,76
2023-01-25T12:28:37.804Z,76
2023-01-25T12:29:37.853Z,80
2023-01-25T12:30:37.933Z,80
2023-01-25T12:31:38.001Z,76
2023-01-25T12:32:37.746Z,76
2023-01-25T12:33:37.798Z,76
2023-01-25T12:34:37.778Z,76
2023-01-25T12:35:37.789Z,76
2023-01-25T12:36:38.260Z,76
2023-01-25T12:37:37.762Z,76
2023-01-25T12:38:38.855Z,76
2023-01-25T12:39:37.800Z,76
2023-01-25T12:40:37.776Z,76
2023-01-25T12:41:37.835Z,72
2023-01-25T12:42:37.789Z,76
2023-01-25T12:43:40.848Z,76
2023-01-25T12:44:37.810Z,72
2023-01-25T12:45:37.800Z,72
2023-01-25T12:46:37.907Z,76
2023-01-25T12:47:37.845Z,76
2023-01-25T12:48:37.789Z,72
2023-01-25T12:49:40.684Z,72
2023-01-25T12:50:37.859Z,72
2023-01-25T12:51:37.799Z,72
2023-01-25T12:52:37.828Z,72
2023-01-25T12:53:37.819Z,72
2023-01-25T12:54:40.881Z,72
2023-01-25T12:55:37.784Z,72
2023-01-25T12:56:37.803Z,72
2023-01-25T12:57:37.791Z,72
2023-01-25T12:58:44.885Z,68
2023-01-25T12:59:37.806Z,72
2023-01-25T13:00:42.826Z,72
2023-01-25T13:01:38.130Z,72
2023-01-25T13:02:37.830Z,72
2023-01-25T13:03:37.786Z,72
2023-01-25T13:04:37.776Z,72
2023-01-25T13:05:40.733Z,72
2023-01-25T13:06:37.825Z,68
2023-01-25T13:07:37.821Z,68
2023-01-25T13:08:39.227Z,68
2023-01-25T13:09:37.961Z,64
2023-01-25T13:10:37.820Z,68
2023-01-25T13:11:40.593Z,68
2023-01-25T13:12:37.834Z,64
2023-01-25T13:13:38.009Z,64
2023-01-25T13:14:37.826Z,64
2023-01-25T13:15:37.852Z,60
2023-01-25T13:16:41.092Z,60
2023-01-25T13:17:44.120Z,64
2023-01-25T13:18:37.890Z,60
2023-01-25T13:19:37.832Z,64
2023-01-25T13:20:38.002Z,60
2023-01-25T13:21:37.891Z,60
2023-01-25T13:22:42.787Z,60
2023-01-25T13:23:37.887Z,60
2023-01-25T13:24:37.911Z,60
2023-01-25T13:25:37.858Z,60
2023-01-25T13:26:37.884Z,60
2023-01-25T13:27:40.903Z,60
2023-01-25T13:28:37.825Z,60
2023-01-25T13:29:37.828Z,60
2023-01-25T13:30:38.007Z,60
2023-01-25T13:32:01.272Z,56
2023-01-25T13:32:37.845Z,60
2023-01-25T13:33:37.834Z,56
2023-01-25T13:34:37.924Z,56
2023-01-25T13:35:37.858Z,56
2023-01-25T13:36:37.841Z,56
2023-01-25T13:37:37.946Z,52
2023-01-25T13:38:41.066Z,56
2023-01-25T13:39:37.869Z,52
2023-01-25T13:40:37.953Z,52
2023-01-25T13:41:37.881Z,56
2023-01-25T13:42:37.904Z,56
2023-01-25T13:43:37.907Z,56
2023-01-25T13:44:37.866Z,56
2023-01-25T13:45:38.046Z,52
2023-01-25T13:46:37.929Z,52
2023-01-25T13:47:37.931Z,52
2023-01-25T13:48:40.459Z,52
2023-01-25T13:49:37.892Z,52
2023-01-25T13:50:37.925Z,52
2023-01-25T13:51:37.867Z,52
2023-01-25T13:52:37.946Z,52
2023-01-25T13:53:38.039Z,52
2023-01-25T13:54:38.011Z,52
2023-01-25T13:55:37.903Z,48
2023-01-25T13:56:37.893Z,52
2023-01-25T13:57:37.916Z,48
2023-01-25T13:58:37.932Z,48
2023-01-25T13:59:37.937Z,48
2023-01-25T14:00:38.220Z,48
2023-01-25T14:01:37.921Z,48
2023-01-25T14:02:37.877Z,44
2023-01-25T14:03:37.968Z,48
2023-01-25T14:04:37.913Z,48
2023-01-25T14:05:40.974Z,44
2023-01-25T14:06:37.887Z,44
2023-01-25T14:07:37.927Z,48
2023-01-25T14:08:37.902Z,44
2023-01-25T14:09:40.898Z,40
2023-01-25T14:10:40.744Z,40
2023-01-25T14:11:37.929Z,40
2023-01-25T14:12:37.906Z,40
2023-01-25T14:13:37.901Z,40
2023-01-25T14:14:37.985Z,40
2023-01-25T14:15:37.961Z,36
2023-01-25T14:16:41.397Z,40
2023-01-25T14:17:38.088Z,36
2023-01-25T14:18:38.194Z,36
2023-01-25T14:19:38.431Z,36
2023-01-25T14:20:37.920Z,36
2023-01-25T14:21:39.545Z,36
2023-01-25T14:22:38.052Z,32
2023-01-25T14:23:38.107Z,36
2023-01-25T14:24:37.907Z,32
2023-01-25T14:25:38.166Z,32
2023-01-25T14:26:39.118Z,32
2023-01-25T14:27:41.020Z,28
2023-01-25T14:28:37.945Z,32
2023-01-25T14:29:40.211Z,32
2023-01-25T14:30:41.305Z,32
2023-01-25T14:31:38.017Z,28
2023-01-25T14:32:44.086Z,28
2023-01-25T14:33:38.074Z,32